Airfield :







YOU CAN JOIN US ON...

 
LOGIN :

Register | Disclaimer

   EN    FR    IT 

 









Legend :    VFR   Marginal VFR   IFR   Intensive IFR   Very Intensive IFR
Visi :
Ceiling :
>= 8 km
>= 3000ft
5 to 8 km
1000 to 3000 ft
1500m to 5 km
500 to 1000 ft
800 to 1500m
200 to 500 ft
< 800m
< 200 ft
Symbols :   Thunderstorms  Fog  Heavy snow  Heavy precipitations  Wind > 20 kt






- Airport Elevation : 180 ft
- IATA code : YZV


CYZV - Sept-Iles

CURRENT METAR :
  • 162100Z 30013G25KT 30SM DRSN FEW040 M04/M12 A3010 RMK CU1 SLP198

EXPIRED METARs :
  • 162000Z 30012G25KT 30SM DRSN FEW040 M04/M12 A3007 RMK CU2 SLP188
  • 161900Z 31020G30KT 30SM DRSN FEW045 M04/M13 A3004 RMK CU2 SLP178
  • 161800Z 31018G30KT 30SM DRSN FEW045 M04/M14 A3002 RMK CU2 SLP172

TAF TAF CYZV
Valid from the 16 at 18:00 until the 17 at 18:00 UTC


161738Z 1618/1718 31020G30KT P6SM FEW040 SCT160
BECMG 1622/1624 31012G22KT
BECMG 1706/1708 30008KT RMK NXT FCST BY 170000Z



MET'MAP, your aeronautical weather chart ! - Copyright ORBIFLY December 2007 - Disclaimer

ORBIFLY MET'MAP TEAM :

Programming & Development : Alexandra Zaïnal
Concept & Development : Baudouin d'Aumeries
Co-Development & Prog : Marc-Olivier Méhu
Technical & hardware support : Manuel Goepfert

Contact : metmap@orbifly.com




SOURCES & CREDITS :

   NOAA